sensor_id;sensor_type;location;lat;lon;timestamp;pressure;altitude;pressure_sealevel;temperature;humidity
61035;BME280;46916;40.564;-7.958;2022-08-11T00:01:26;97106.81;;;24.72;56.74
61035;BME280;46916;40.564;-7.958;2022-08-11T00:03:27;97099.25;;;24.69;56.79
61035;BME280;46916;40.564;-7.958;2022-08-11T00:05:28;97101.47;;;24.72;56.71
61035;BME280;46916;40.564;-7.958;2022-08-11T00:07:30;97105.78;;;24.73;56.76
61035;BME280;46916;40.564;-7.958;2022-08-11T00:09:32;97099.16;;;24.76;56.71
61035;BME280;46916;40.564;-7.958;2022-08-11T00:11:40;97100.56;;;24.78;56.44
61035;BME280;46916;40.564;-7.958;2022-08-11T00:13:44;97095.56;;;24.82;56.44
61035;BME280;46916;40.564;-7.958;2022-08-11T00:15:45;97097.91;;;24.78;56.33
61035;BME280;46916;40.564;-7.958;2022-08-11T00:17:47;97094.03;;;24.74;56.70
61035;BME280;46916;40.564;-7.958;2022-08-11T00:19:48;97089.13;;;24.71;56.57
61035;BME280;46916;40.564;-7.958;2022-08-11T00:21:50;97095.75;;;24.68;56.72
61035;BME280;46916;40.564;-7.958;2022-08-11T00:23:59;97089.59;;;24.68;56.95
61035;BME280;46916;40.564;-7.958;2022-08-11T00:26:00;97087.72;;;24.68;56.66
61035;BME280;46916;40.564;-7.958;2022-08-11T00:28:00;97085.84;;;24.69;56.72
61035;BME280;46916;40.564;-7.958;2022-08-11T00:30:06;97085.66;;;24.70;56.68
61035;BME280;46916;40.564;-7.958;2022-08-11T00:32:12;97089.59;;;24.68;56.75
61035;BME280;46916;40.564;-7.958;2022-08-11T00:34:15;97085.50;;;24.65;56.70
61035;BME280;46916;40.564;-7.958;2022-08-11T00:36:19;97090.28;;;24.63;56.80
61035;BME280;46916;40.564;-7.958;2022-08-11T00:38:23;97094.56;;;24.64;56.83
61035;BME280;46916;40.564;-7.958;2022-08-11T00:40:54;97097.50;;;24.63;56.73
61035;BME280;46916;40.564;-7.958;2022-08-11T00:43:34;97085.59;;;24.59;56.91
61035;BME280;46916;40.564;-7.958;2022-08-11T00:48:10;97088.59;;;24.51;57.28
61035;BME280;46916;40.564;-7.958;2022-08-11T01:00:02;97079.88;;;24.55;57.35
61035;BME280;46916;40.564;-7.958;2022-08-11T01:02:18;97082.06;;;24.46;57.46
61035;BME280;46916;40.564;-7.958;2022-08-11T01:04:53;97081.00;;;24.48;57.43
61035;BME280;46916;40.564;-7.958;2022-08-11T01:35:31;97081.47;;;24.26;58.06
61035;BME280;46916;40.564;-7.958;2022-08-11T01:38:20;97089.69;;;24.25;57.99
61035;BME280;46916;40.564;-7.958;2022-08-11T01:43:13;97078.19;;;24.24;57.92
61035;BME280;46916;40.564;-7.958;2022-08-11T01:46:00;97075.75;;;24.22;57.90
61035;BME280;46916;40.564;-7.958;2022-08-11T01:53:25;97082.16;;;24.21;58.50
61035;BME280;46916;40.564;-7.958;2022-08-11T01:56:00;97073.31;;;24.21;58.03
61035;BME280;46916;40.564;-7.958;2022-08-11T01:58:12;97078.50;;;24.16;57.91
61035;BME280;46916;40.564;-7.958;2022-08-11T02:00:19;97075.09;;;24.09;58.29
61035;BME280;46916;40.564;-7.958;2022-08-11T02:02:40;97079.59;;;24.08;58.34
61035;BME280;46916;40.564;-7.958;2022-08-11T02:05:17;97079.25;;;24.05;58.33
61035;BME280;46916;40.564;-7.958;2022-08-11T02:07:51;97075.75;;;24.04;58.67
61035;BME280;46916;40.564;-7.958;2022-08-11T02:12:46;97066.31;;;24.02;58.34
61035;BME280;46916;40.564;-7.958;2022-08-11T02:17:20;97068.25;;;23.94;58.38
61035;BME280;46916;40.564;-7.958;2022-08-11T02:19:29;97078.97;;;23.94;58.18
61035;BME280;46916;40.564;-7.958;2022-08-11T02:22:22;97076.72;;;23.91;58.20
61035;BME280;46916;40.564;-7.958;2022-08-11T02:25:03;97083.94;;;23.91;58.14
61035;BME280;46916;40.564;-7.958;2022-08-11T02:27:16;97078.59;;;23.91;58.02
61035;BME280;46916;40.564;-7.958;2022-08-11T02:29:23;97080.69;;;23.89;58.30
61035;BME280;46916;40.564;-7.958;2022-08-11T02:34:04;97083.34;;;23.89;58.47
61035;BME280;46916;40.564;-7.958;2022-08-11T02:36:16;97078.81;;;23.89;58.54
61035;BME280;46916;40.564;-7.958;2022-08-11T02:38:45;97074.84;;;23.92;58.54
61035;BME280;46916;40.564;-7.958;2022-08-11T02:40:56;97068.69;;;23.91;58.30
61035;BME280;46916;40.564;-7.958;2022-08-11T02:43:08;97069.97;;;23.89;58.54
61035;BME280;46916;40.564;-7.958;2022-08-11T02:50:22;97062.84;;;23.83;58.64
61035;BME280;46916;40.564;-7.958;2022-08-11T02:57:50;97064.25;;;23.85;58.47
61035;BME280;46916;40.564;-7.958;2022-08-11T02:59:58;97059.34;;;23.82;58.63
61035;BME280;46916;40.564;-7.958;2022-08-11T03:04:29;97060.88;;;23.71;58.66
61035;BME280;46916;40.564;-7.958;2022-08-11T03:06:34;97061.56;;;23.67;58.90
61035;BME280;46916;40.564;-7.958;2022-08-11T03:08:50;97059.75;;;23.61;59.28
61035;BME280;46916;40.564;-7.958;2022-08-11T03:13:33;97055.41;;;23.66;58.93
61035;BME280;46916;40.564;-7.958;2022-08-11T03:16:18;97057.41;;;23.71;58.92
61035;BME280;46916;40.564;-7.958;2022-08-11T03:21:20;97060.69;;;23.73;58.93
61035;BME280;46916;40.564;-7.958;2022-08-11T03:31:07;97055.78;;;23.70;58.76
61035;BME280;46916;40.564;-7.958;2022-08-11T03:33:30;97049.44;;;23.64;59.06
61035;BME280;46916;40.564;-7.958;2022-08-11T03:36:09;97042.66;;;23.62;58.93
61035;BME280;46916;40.564;-7.958;2022-08-11T03:38:14;97050.94;;;23.60;59.23
61035;BME280;46916;40.564;-7.958;2022-08-11T03:40:36;97038.00;;;23.57;59.07
61035;BME280;46916;40.564;-7.958;2022-08-11T03:43:11;97035.09;;;23.59;58.68
61035;BME280;46916;40.564;-7.958;2022-08-11T03:45:41;97032.94;;;23.49;58.77
61035;BME280;46916;40.564;-7.958;2022-08-11T04:02:26;97046.81;;;23.39;59.63
61035;BME280;46916;40.564;-7.958;2022-08-11T04:24:26;97069.31;;;23.50;59.20
61035;BME280;46916;40.564;-7.958;2022-08-11T04:29:20;97073.53;;;23.39;59.39
61035;BME280;46916;40.564;-7.958;2022-08-11T04:40:55;97082.09;;;23.23;59.92
61035;BME280;46916;40.564;-7.958;2022-08-11T04:43:19;97074.53;;;23.20;60.20
61035;BME280;46916;40.564;-7.958;2022-08-11T04:47:46;97077.03;;;23.15;60.05
61035;BME280;46916;40.564;-7.958;2022-08-11T04:53:12;97077.91;;;23.09;60.17
61035;BME280;46916;40.564;-7.958;2022-08-11T04:56:05;97078.94;;;23.08;59.84
61035;BME280;46916;40.564;-7.958;2022-08-11T04:58:50;97073.78;;;23.06;60.14
61035;BME280;46916;40.564;-7.958;2022-08-11T05:01:23;97075.66;;;23.06;59.69
61035;BME280;46916;40.564;-7.958;2022-08-11T05:04:02;97074.25;;;23.03;60.10
61035;BME280;46916;40.564;-7.958;2022-08-11T05:06:47;97077.56;;;22.98;60.23
61035;BME280;46916;40.564;-7.958;2022-08-11T05:09:24;97075.34;;;22.95;59.95
61035;BME280;46916;40.564;-7.958;2022-08-11T05:12:00;97073.09;;;22.92;60.24
61035;BME280;46916;40.564;-7.958;2022-08-11T05:14:29;97078.81;;;22.89;60.75
61035;BME280;46916;40.564;-7.958;2022-08-11T05:16:52;97083.22;;;22.77;60.73
61035;BME280;46916;40.564;-7.958;2022-08-11T05:19:18;97076.66;;;22.73;60.89
61035;BME280;46916;40.564;-7.958;2022-08-11T05:21:41;97087.16;;;22.74;60.84
61035;BME280;46916;40.564;-7.958;2022-08-11T05:24:09;97087.53;;;22.78;60.72
61035;BME280;46916;40.564;-7.958;2022-08-11T05:26:39;97082.78;;;22.80;60.73
61035;BME280;46916;40.564;-7.958;2022-08-11T05:29:02;97092.44;;;22.81;60.49
61035;BME280;46916;40.564;-7.958;2022-08-11T05:31:30;97098.22;;;22.78;60.37
61035;BME280;46916;40.564;-7.958;2022-08-11T05:34:11;97094.53;;;22.72;60.75
61035;BME280;46916;40.564;-7.958;2022-08-11T05:38:57;97105.88;;;22.68;60.79
61035;BME280;46916;40.564;-7.958;2022-08-11T05:41:23;97104.00;;;22.68;60.79
61035;BME280;46916;40.564;-7.958;2022-08-11T05:43:43;97112.03;;;22.68;60.71
61035;BME280;46916;40.564;-7.958;2022-08-11T05:46:05;97109.56;;;22.67;60.87
61035;BME280;46916;40.564;-7.958;2022-08-11T05:48:32;97107.09;;;22.65;61.12
61035;BME280;46916;40.564;-7.958;2022-08-11T05:50:53;97105.28;;;22.66;60.80
61035;BME280;46916;40.564;-7.958;2022-08-11T05:53:14;97111.22;;;22.68;61.22
61035;BME280;46916;40.564;-7.958;2022-08-11T05:55:38;97117.34;;;22.68;61.25
61035;BME280;46916;40.564;-7.958;2022-08-11T05:58:07;97114.69;;;22.68;60.80
61035;BME280;46916;40.564;-7.958;2022-08-11T06:00:10;97118.41;;;22.67;61.00
61035;BME280;46916;40.564;-7.958;2022-08-11T06:02:12;97113.47;;;22.64;61.10
61035;BME280;46916;40.564;-7.958;2022-08-11T06:06:20;97105.09;;;22.61;61.12
61035;BME280;46916;40.564;-7.958;2022-08-11T06:08:29;97114.94;;;22.60;61.45
61035;BME280;46916;40.564;-7.958;2022-08-11T06:10:35;97115.56;;;22.62;61.60
61035;BME280;46916;40.564;-7.958;2022-08-11T06:12:37;97116.56;;;22.61;61.63
61035;BME280;46916;40.564;-7.958;2022-08-11T06:14:44;97120.69;;;22.64;61.53
61035;BME280;46916;40.564;-7.958;2022-08-11T06:16:50;97116.97;;;22.65;61.32
61035;BME280;46916;40.564;-7.958;2022-08-11T06:18:54;97124.16;;;22.64;61.55
61035;BME280;46916;40.564;-7.958;2022-08-11T06:20:56;97126.00;;;22.64;61.29
61035;BME280;46916;40.564;-7.958;2022-08-11T06:23:01;97126.25;;;22.62;61.21
61035;BME280;46916;40.564;-7.958;2022-08-11T06:25:04;97129.50;;;22.64;61.66
61035;BME280;46916;40.564;-7.958;2022-08-11T06:27:07;97134.63;;;22.66;61.28
61035;BME280;46916;40.564;-7.958;2022-08-11T06:29:09;97133.78;;;22.65;61.28
61035;BME280;46916;40.564;-7.958;2022-08-11T06:31:20;97136.28;;;22.67;61.20
61035;BME280;46916;40.564;-7.958;2022-08-11T06:36:12;97140.56;;;22.68;61.12
61035;BME280;46916;40.564;-7.958;2022-08-11T06:40:58;97146.53;;;22.70;61.04
61035;BME280;46916;40.564;-7.958;2022-08-11T06:43:22;97147.75;;;22.74;61.22
61035;BME280;46916;40.564;-7.958;2022-08-11T06:45:30;97148.94;;;22.78;61.50
61035;BME280;46916;40.564;-7.958;2022-08-11T06:47:33;97141.69;;;22.85;60.95
61035;BME280;46916;40.564;-7.958;2022-08-11T06:49:37;97143.94;;;22.88;61.11
61035;BME280;46916;40.564;-7.958;2022-08-11T06:52:00;97140.06;;;22.91;60.89
61035;BME280;46916;40.564;-7.958;2022-08-11T06:54:01;97153.19;;;22.86;60.95
61035;BME280;46916;40.564;-7.958;2022-08-11T06:56:03;97153.41;;;22.84;61.08
61035;BME280;46916;40.564;-7.958;2022-08-11T06:58:27;97151.78;;;22.83;61.22
61035;BME280;46916;40.564;-7.958;2022-08-11T07:00:52;97146.84;;;22.87;61.25
61035;BME280;46916;40.564;-7.958;2022-08-11T07:03:06;97159.97;;;22.88;61.08
61035;BME280;46916;40.564;-7.958;2022-08-11T07:05:26;97157.50;;;22.93;61.20
61035;BME280;46916;40.564;-7.958;2022-08-11T07:12:45;97160.94;;;23.01;60.89
61035;BME280;46916;40.564;-7.958;2022-08-11T07:15:09;97160.69;;;23.09;60.79
61035;BME280;46916;40.564;-7.958;2022-08-11T07:17:35;97163.72;;;23.19;60.63
61035;BME280;46916;40.564;-7.958;2022-08-11T07:19:38;97163.47;;;23.27;59.91
61035;BME280;46916;40.564;-7.958;2022-08-11T07:22:02;97164.47;;;23.26;60.38
61035;BME280;46916;40.564;-7.958;2022-08-11T07:24:33;97169.34;;;23.36;60.03
61035;BME280;46916;40.564;-7.958;2022-08-11T07:26:54;97166.78;;;23.47;59.80
61035;BME280;46916;40.564;-7.958;2022-08-11T07:29:14;97171.47;;;23.52;59.65
61035;BME280;46916;40.564;-7.958;2022-08-11T07:31:20;97177.22;;;23.56;59.44
61035;BME280;46916;40.564;-7.958;2022-08-11T07:33:51;97182.69;;;23.67;59.04
61035;BME280;46916;40.564;-7.958;2022-08-11T07:35:55;97184.09;;;23.70;59.03
61035;BME280;46916;40.564;-7.958;2022-08-11T07:38:01;97187.16;;;23.73;59.13
61035;BME280;46916;40.564;-7.958;2022-08-11T07:40:03;97186.00;;;23.88;58.69
61035;BME280;46916;40.564;-7.958;2022-08-11T07:42:06;97186.69;;;24.02;58.54
61035;BME280;46916;40.564;-7.958;2022-08-11T07:44:11;97190.41;;;24.01;58.44
61035;BME280;46916;40.564;-7.958;2022-08-11T07:46:15;97196.19;;;23.97;58.38
61035;BME280;46916;40.564;-7.958;2022-08-11T07:48:34;97197.19;;;23.78;58.71
61035;BME280;46916;40.564;-7.958;2022-08-11T07:50:54;97196.75;;;23.81;59.01
61035;BME280;46916;40.564;-7.958;2022-08-11T07:53:15;97188.63;;;23.94;58.59
61035;BME280;46916;40.564;-7.958;2022-08-11T07:55:17;97190.34;;;24.07;58.10
61035;BME280;46916;40.564;-7.958;2022-08-11T07:57:20;97200.06;;;24.20;58.01
61035;BME280;46916;40.564;-7.958;2022-08-11T07:59:39;97196.34;;;24.03;58.23
61035;BME280;46916;40.564;-7.958;2022-08-11T08:01:59;97203.19;;;23.98;58.52
61035;BME280;46916;40.564;-7.958;2022-08-11T08:04:18;97205.28;;;23.96;58.55
61035;BME280;46916;40.564;-7.958;2022-08-11T08:06:38;97201.13;;;24.01;58.69
61035;BME280;46916;40.564;-7.958;2022-08-11T08:08:58;97206.63;;;24.06;58.26
61035;BME280;46916;40.564;-7.958;2022-08-11T08:11:21;97206.47;;;24.01;58.40
61035;BME280;46916;40.564;-7.958;2022-08-11T08:13:42;97211.91;;;23.87;58.88
61035;BME280;46916;40.564;-7.958;2022-08-11T08:16:01;97212.38;;;23.84;58.99
61035;BME280;46916;40.564;-7.958;2022-08-11T08:18:23;97214.31;;;23.95;58.89
61035;BME280;46916;40.564;-7.958;2022-08-11T08:20:26;97215.59;;;24.11;58.51
61035;BME280;46916;40.564;-7.958;2022-08-11T08:22:27;97224.53;;;24.23;57.99
61035;BME280;46916;40.564;-7.958;2022-08-11T08:24:29;97213.25;;;24.21;57.87
61035;BME280;46916;40.564;-7.958;2022-08-11T08:26:32;97213.53;;;24.13;58.44
61035;BME280;46916;40.564;-7.958;2022-08-11T08:28:54;97220.47;;;24.21;58.40
61035;BME280;46916;40.564;-7.958;2022-08-11T08:31:15;97220.28;;;24.16;58.38
61035;BME280;46916;40.564;-7.958;2022-08-11T08:35:21;97218.69;;;24.33;58.04
61035;BME280;46916;40.564;-7.958;2022-08-11T08:37:23;97211.78;;;24.44;57.54
61035;BME280;46916;40.564;-7.958;2022-08-11T08:39:25;97220.06;;;24.42;57.65
61035;BME280;46916;40.564;-7.958;2022-08-11T08:41:28;97213.78;;;24.49;57.58
61035;BME280;46916;40.564;-7.958;2022-08-11T08:43:30;97219.16;;;24.49;57.79
61035;BME280;46916;40.564;-7.958;2022-08-11T08:45:34;97219.25;;;24.42;57.68
61035;BME280;46916;40.564;-7.958;2022-08-11T08:47:37;97219.88;;;24.37;58.11
61035;BME280;46916;40.564;-7.958;2022-08-11T08:49:49;97215.91;;;24.46;58.03
61035;BME280;46916;40.564;-7.958;2022-08-11T08:51:53;97211.81;;;24.62;57.79
61035;BME280;46916;40.564;-7.958;2022-08-11T08:54:02;97211.88;;;24.74;57.53
61035;BME280;46916;40.564;-7.958;2022-08-11T08:56:06;97220.63;;;24.81;56.84
61035;BME280;46916;40.564;-7.958;2022-08-11T08:58:09;97221.66;;;24.80;56.80
61035;BME280;46916;40.564;-7.958;2022-08-11T09:00:13;97221.41;;;24.70;57.11
61035;BME280;46916;40.564;-7.958;2022-08-11T09:02:17;97211.63;;;24.57;57.59
61035;BME280;46916;40.564;-7.958;2022-08-11T09:04:19;97215.28;;;24.44;57.90
61035;BME280;46916;40.564;-7.958;2022-08-11T09:06:20;97226.16;;;24.50;57.97
61035;BME280;46916;40.564;-7.958;2022-08-11T09:08:22;97221.16;;;24.53;57.72
61035;BME280;46916;40.564;-7.958;2022-08-11T09:10:28;97222.00;;;24.54;57.93
61035;BME280;46916;40.564;-7.958;2022-08-11T09:12:31;97216.03;;;24.52;58.03
61035;BME280;46916;40.564;-7.958;2022-08-11T09:14:37;97215.69;;;24.23;58.63
61035;BME280;46916;40.564;-7.958;2022-08-11T09:16:56;97211.53;;;24.27;58.59
61035;BME280;46916;40.564;-7.958;2022-08-11T09:18:59;97218.31;;;24.30;58.57
61035;BME280;46916;40.564;-7.958;2022-08-11T09:21:02;97213.25;;;24.21;58.79
61035;BME280;46916;40.564;-7.958;2022-08-11T09:23:06;97215.69;;;24.23;58.69
61035;BME280;46916;40.564;-7.958;2022-08-11T09:25:29;97209.47;;;24.29;58.52
61035;BME280;46916;40.564;-7.958;2022-08-11T09:27:48;97209.72;;;24.46;58.25
61035;BME280;46916;40.564;-7.958;2022-08-11T09:29:50;97215.50;;;24.61;58.00
61035;BME280;46916;40.564;-7.958;2022-08-11T09:31:52;97212.31;;;24.71;57.55
61035;BME280;46916;40.564;-7.958;2022-08-11T09:33:54;97215.00;;;24.71;57.71
61035;BME280;46916;40.564;-7.958;2022-08-11T09:35:55;97218.03;;;24.75;57.54
61035;BME280;46916;40.564;-7.958;2022-08-11T09:37:57;97213.75;;;24.85;57.18
61035;BME280;46916;40.564;-7.958;2022-08-11T09:40:16;97217.78;;;24.94;56.93
61035;BME280;46916;40.564;-7.958;2022-08-11T09:42:30;97220.28;;;25.08;56.70
61035;BME280;46916;40.564;-7.958;2022-08-11T09:44:50;97217.44;;;25.21;56.62
61035;BME280;46916;40.564;-7.958;2022-08-11T09:46:54;97217.34;;;25.28;56.10
61035;BME280;46916;40.564;-7.958;2022-08-11T09:48:58;97218.53;;;25.32;56.25
61035;BME280;46916;40.564;-7.958;2022-08-11T09:51:00;97218.41;;;25.38;56.15
61035;BME280;46916;40.564;-7.958;2022-08-11T09:53:02;97222.16;;;25.37;56.15
61035;BME280;46916;40.564;-7.958;2022-08-11T09:55:06;97228.44;;;25.43;55.89
61035;BME280;46916;40.564;-7.958;2022-08-11T09:57:11;97218.09;;;25.47;55.79
61035;BME280;46916;40.564;-7.958;2022-08-11T09:59:30;97220.31;;;25.50;55.47
61035;BME280;46916;40.564;-7.958;2022-08-11T10:01:46;97228.72;;;25.53;55.60
61035;BME280;46916;40.564;-7.958;2022-08-11T10:03:48;97225.34;;;25.58;55.29
61035;BME280;46916;40.564;-7.958;2022-08-11T10:05:57;97221.41;;;25.60;55.42
61035;BME280;46916;40.564;-7.958;2022-08-11T10:08:18;97227.94;;;25.64;54.91
61035;BME280;46916;40.564;-7.958;2022-08-11T10:10:21;97222.94;;;25.68;55.16
61035;BME280;46916;40.564;-7.958;2022-08-11T10:12:27;97228.06;;;25.69;55.02
61035;BME280;46916;40.564;-7.958;2022-08-11T10:14:32;97226.78;;;25.72;55.14
61035;BME280;46916;40.564;-7.958;2022-08-11T10:16:52;97222.25;;;25.73;55.17
61035;BME280;46916;40.564;-7.958;2022-08-11T10:18:54;97222.81;;;25.75;55.04
61035;BME280;46916;40.564;-7.958;2022-08-11T10:21:02;97226.94;;;25.77;54.81
61035;BME280;46916;40.564;-7.958;2022-08-11T10:23:04;97221.13;;;25.80;54.52
61035;BME280;46916;40.564;-7.958;2022-08-11T10:25:25;97225.72;;;25.73;54.88
61035;BME280;46916;40.564;-7.958;2022-08-11T10:27:45;97230.66;;;25.76;54.67
61035;BME280;46916;40.564;-7.958;2022-08-11T10:29:48;97228.09;;;25.81;54.57
61035;BME280;46916;40.564;-7.958;2022-08-11T10:32:09;97226.81;;;25.84;54.34
61035;BME280;46916;40.564;-7.958;2022-08-11T10:34:28;97235.47;;;25.86;54.27
61035;BME280;46916;40.564;-7.958;2022-08-11T10:36:35;97231.03;;;25.91;54.67
61035;BME280;46916;40.564;-7.958;2022-08-11T10:38:47;97222.25;;;25.96;54.09
61035;BME280;46916;40.564;-7.958;2022-08-11T10:40:51;97227.19;;;25.99;54.06
61035;BME280;46916;40.564;-7.958;2022-08-11T10:43:14;97228.00;;;26.00;53.71
61035;BME280;46916;40.564;-7.958;2022-08-11T10:45:15;97220.53;;;26.02;53.57
61035;BME280;46916;40.564;-7.958;2022-08-11T10:47:35;97226.63;;;26.09;53.86
61035;BME280;46916;40.564;-7.958;2022-08-11T10:49:38;97223.44;;;26.12;53.58
61035;BME280;46916;40.564;-7.958;2022-08-11T10:51:40;97227.28;;;26.16;53.36
61035;BME280;46916;40.564;-7.958;2022-08-11T10:53:59;97219.94;;;26.23;53.00
61035;BME280;46916;40.564;-7.958;2022-08-11T10:56:19;97225.19;;;26.30;53.22
61035;BME280;46916;40.564;-7.958;2022-08-11T10:58:39;97224.25;;;26.36;52.61
61035;BME280;46916;40.564;-7.958;2022-08-11T11:00:51;97213.97;;;26.33;52.98
61035;BME280;46916;40.564;-7.958;2022-08-11T11:02:56;97215.38;;;26.35;53.15
61035;BME280;46916;40.564;-7.958;2022-08-11T11:07:09;97220.03;;;26.40;52.40
61035;BME280;46916;40.564;-7.958;2022-08-11T11:09:40;97219.94;;;26.47;52.01
61035;BME280;46916;40.564;-7.958;2022-08-11T11:11:48;97223.56;;;26.52;52.25
61035;BME280;46916;40.564;-7.958;2022-08-11T11:14:08;97226.03;;;26.54;51.32
61035;BME280;46916;40.564;-7.958;2022-08-11T11:16:34;97212.81;;;26.52;51.03
61035;BME280;46916;40.564;-7.958;2022-08-11T11:19:06;97218.31;;;26.46;51.66
61035;BME280;46916;40.564;-7.958;2022-08-11T11:21:14;97216.66;;;26.56;51.95
61035;BME280;46916;40.564;-7.958;2022-08-11T11:30:50;97209.97;;;27.11;50.87
61035;BME280;46916;40.564;-7.958;2022-08-11T11:33:14;97214.47;;;27.22;50.26
61035;BME280;46916;40.564;-7.958;2022-08-11T11:35:35;97207.66;;;27.31;50.33
61035;BME280;46916;40.564;-7.958;2022-08-11T11:37:48;97211.00;;;27.38;49.81
61035;BME280;46916;40.564;-7.958;2022-08-11T11:39:51;97202.19;;;27.43;49.90
61035;BME280;46916;40.564;-7.958;2022-08-11T11:41:56;97200.91;;;27.46;50.07
61035;BME280;46916;40.564;-7.958;2022-08-11T11:43:57;97205.81;;;27.49;49.77
61035;BME280;46916;40.564;-7.958;2022-08-11T11:45:58;97199.44;;;27.55;49.70
61035;BME280;46916;40.564;-7.958;2022-08-11T11:48:00;97195.53;;;27.62;49.29
61035;BME280;46916;40.564;-7.958;2022-08-11T11:50:03;97198.00;;;27.64;49.42
61035;BME280;46916;40.564;-7.958;2022-08-11T11:52:05;97200.28;;;27.72;49.08
61035;BME280;46916;40.564;-7.958;2022-08-11T11:54:08;97199.56;;;27.77;49.19
61035;BME280;46916;40.564;-7.958;2022-08-11T11:56:10;97199.66;;;27.82;49.04
61035;BME280;46916;40.564;-7.958;2022-08-11T11:58:12;97201.28;;;27.83;48.89
61035;BME280;46916;40.564;-7.958;2022-08-11T12:00:31;97183.00;;;27.85;48.50
61035;BME280;46916;40.564;-7.958;2022-08-11T12:02:52;97190.34;;;27.89;48.54
61035;BME280;46916;40.564;-7.958;2022-08-11T12:04:53;97183.41;;;27.94;48.36
61035;BME280;46916;40.564;-7.958;2022-08-11T12:06:54;97190.47;;;28.00;48.34
61035;BME280;46916;40.564;-7.958;2022-08-11T12:09:15;97181.91;;;28.03;48.60
61035;BME280;46916;40.564;-7.958;2022-08-11T12:11:23;97184.53;;;27.98;48.28
61035;BME280;46916;40.564;-7.958;2022-08-11T12:13:48;97176.16;;;27.94;48.35
61035;BME280;46916;40.564;-7.958;2022-08-11T12:15:51;97177.53;;;27.97;48.60
61035;BME280;46916;40.564;-7.958;2022-08-11T12:17:52;97170.09;;;28.04;48.60
61035;BME280;46916;40.564;-7.958;2022-08-11T12:19:54;97180.94;;;28.09;48.40
61035;BME280;46916;40.564;-7.958;2022-08-11T12:21:55;97178.31;;;28.14;48.03
61035;BME280;46916;40.564;-7.958;2022-08-11T12:24:15;97175.03;;;28.12;47.70
61035;BME280;46916;40.564;-7.958;2022-08-11T12:26:35;97175.47;;;28.04;48.10
61035;BME280;46916;40.564;-7.958;2022-08-11T12:28:49;97166.34;;;28.05;48.13
61035;BME280;46916;40.564;-7.958;2022-08-11T12:30:51;97166.47;;;28.15;47.77
61035;BME280;46916;40.564;-7.958;2022-08-11T12:33:04;97174.13;;;28.23;47.38
61035;BME280;46916;40.564;-7.958;2022-08-11T12:35:18;97169.38;;;28.30;47.57
61035;BME280;46916;40.564;-7.958;2022-08-11T12:37:23;97172.75;;;28.37;47.29
61035;BME280;46916;40.564;-7.958;2022-08-11T12:39:34;97163.59;;;28.38;47.26
61035;BME280;46916;40.564;-7.958;2022-08-11T12:41:54;97169.03;;;28.44;46.30
61035;BME280;46916;40.564;-7.958;2022-08-11T12:44:14;97163.66;;;28.44;46.95
61035;BME280;46916;40.564;-7.958;2022-08-11T12:46:44;97164.16;;;28.41;46.62
61035;BME280;46916;40.564;-7.958;2022-08-11T12:48:47;97152.63;;;28.45;46.31
61035;BME280;46916;40.564;-7.958;2022-08-11T12:51:09;97159.06;;;28.44;46.22
61035;BME280;46916;40.564;-7.958;2022-08-11T12:53:30;97152.38;;;28.47;46.34
61035;BME280;46916;40.564;-7.958;2022-08-11T12:55:31;97159.22;;;28.54;46.04
61035;BME280;46916;40.564;-7.958;2022-08-11T12:57:51;97160.41;;;28.63;46.15
61035;BME280;46916;40.564;-7.958;2022-08-11T13:00:10;97156.94;;;28.68;45.60
61035;BME280;46916;40.564;-7.958;2022-08-11T13:02:30;97151.09;;;28.76;45.41
61035;BME280;46916;40.564;-7.958;2022-08-11T13:04:50;97151.16;;;28.81;45.28
61035;BME280;46916;40.564;-7.958;2022-08-11T13:07:00;97153.03;;;28.81;44.75
61035;BME280;46916;40.564;-7.958;2022-08-11T13:09:03;97154.41;;;28.83;44.91
61035;BME280;46916;40.564;-7.958;2022-08-11T13:11:19;97143.69;;;28.88;44.39
61035;BME280;46916;40.564;-7.958;2022-08-11T13:13:39;97146.44;;;28.94;44.33
61035;BME280;46916;40.564;-7.958;2022-08-11T13:15:42;97143.50;;;28.95;44.48
61035;BME280;46916;40.564;-7.958;2022-08-11T13:17:46;97143.56;;;29.00;44.22
61035;BME280;46916;40.564;-7.958;2022-08-11T13:19:49;97147.66;;;29.03;44.05
61035;BME280;46916;40.564;-7.958;2022-08-11T13:21:51;97143.31;;;29.02;43.57
61035;BME280;46916;40.564;-7.958;2022-08-11T13:23:53;97148.38;;;28.98;43.08
61035;BME280;46916;40.564;-7.958;2022-08-11T13:25:55;97135.19;;;28.97;43.33
61035;BME280;46916;40.564;-7.958;2022-08-11T13:27:58;97136.88;;;29.03;43.26
61035;BME280;46916;40.564;-7.958;2022-08-11T13:29:59;97137.72;;;29.08;43.58
61035;BME280;46916;40.564;-7.958;2022-08-11T13:32:19;97140.22;;;29.15;43.44
61035;BME280;46916;40.564;-7.958;2022-08-11T13:34:23;97140.75;;;29.17;43.22
61035;BME280;46916;40.564;-7.958;2022-08-11T13:36:24;97139.44;;;29.20;43.22
61035;BME280;46916;40.564;-7.958;2022-08-11T13:38:28;97132.97;;;29.21;42.94
61035;BME280;46916;40.564;-7.958;2022-08-11T13:40:31;97137.06;;;29.23;42.93
61035;BME280;46916;40.564;-7.958;2022-08-11T13:42:32;97136.22;;;29.23;42.90
61035;BME280;46916;40.564;-7.958;2022-08-11T13:44:35;97140.03;;;29.27;42.93
61035;BME280;46916;40.564;-7.958;2022-08-11T13:46:38;97138.72;;;29.29;42.93
61035;BME280;46916;40.564;-7.958;2022-08-11T13:48:40;97145.22;;;29.33;42.72
61035;BME280;46916;40.564;-7.958;2022-08-11T13:50:43;97132.31;;;29.35;42.50
61035;BME280;46916;40.564;-7.958;2022-08-11T13:53:03;97130.16;;;29.37;42.62
61035;BME280;46916;40.564;-7.958;2022-08-11T13:55:09;97126.38;;;29.38;42.47
61035;BME280;46916;40.564;-7.958;2022-08-11T13:57:21;97127.47;;;29.43;42.11
61035;BME280;46916;40.564;-7.958;2022-08-11T13:59:23;97117.25;;;29.40;41.92
61035;BME280;46916;40.564;-7.958;2022-08-11T14:01:27;97122.06;;;29.37;41.68
61035;BME280;46916;40.564;-7.958;2022-08-11T14:03:30;97113.44;;;29.35;41.88
61035;BME280;46916;40.564;-7.958;2022-08-11T14:05:37;97110.19;;;29.38;41.92
61035;BME280;46916;40.564;-7.958;2022-08-11T14:07:58;97114.00;;;29.43;41.74
61035;BME280;46916;40.564;-7.958;2022-08-11T14:10:02;97107.28;;;29.45;41.66
61035;BME280;46916;40.564;-7.958;2022-08-11T14:12:23;97107.31;;;29.50;41.93
61035;BME280;46916;40.564;-7.958;2022-08-11T14:14:46;97096.81;;;29.54;41.68